createdAt,value
2017-06-03T00:08:12.621Z,17.7
2017-06-03T00:18:26.913Z,17.7
2017-06-03T00:28:42.515Z,17.7
2017-06-03T00:38:58.195Z,17.8
2017-06-03T00:49:13.532Z,17.6
2017-06-03T00:59:28.510Z,17.8
2017-06-03T01:09:42.670Z,17.9
2017-06-03T01:19:58.208Z,17.9
2017-06-03T01:30:13.943Z,18
2017-06-03T01:40:29.183Z,18
2017-06-03T01:50:44.488Z,18.1
2017-06-03T02:01:00.006Z,18.1
2017-06-03T02:11:14.737Z,18.1
2017-06-03T02:21:29.808Z,18
2017-06-03T02:31:43.730Z,17.9
2017-06-03T02:41:57.864Z,18
2017-06-03T02:52:12.383Z,17.9
2017-06-03T03:02:27.613Z,18
2017-06-03T03:12:41.607Z,18.3
2017-06-03T03:22:55.597Z,18.3
2017-06-03T03:33:09.409Z,18.3
2017-06-03T03:43:23.712Z,18.4
2017-06-03T03:53:38.202Z,18.4
2017-06-03T04:03:53.441Z,18.3
2017-06-03T04:14:08.820Z,18.3
2017-06-03T04:24:22.710Z,18.2
2017-06-03T04:34:37.450Z,18.1
2017-06-03T04:44:52.760Z,18.1
2017-06-03T04:55:07.231Z,17.9
2017-06-03T05:05:23.007Z,18.1
2017-06-03T05:15:38.666Z,18.2
2017-06-03T05:25:53.396Z,18.4
2017-06-03T05:36:07.282Z,18.3
2017-06-03T05:46:22.599Z,18.5
2017-06-03T05:56:38.084Z,18.4
2017-06-03T06:06:53.626Z,18.9
2017-06-03T06:17:08.101Z,18.9
2017-06-03T06:27:22.324Z,18.9
2017-06-03T06:37:36.443Z,19.2
2017-06-03T06:47:51.298Z,19.3
2017-06-03T06:58:06.527Z,19.5
2017-06-03T07:08:20.402Z,19.5
2017-06-03T07:18:35.102Z,19.7
2017-06-03T07:28:49.440Z,19.6
2017-06-03T07:39:04.001Z,19.4
2017-06-03T07:49:19.375Z,19.6
2017-06-03T07:59:34.849Z,20.2
2017-06-03T08:09:49.361Z,21.2
2017-06-03T08:20:05.219Z,21.4
2017-06-03T08:30:19.863Z,21.7
2017-06-03T08:40:35.492Z,22.1
2017-06-03T08:50:50.117Z,23.6
2017-06-03T09:01:05.707Z,24.2
2017-06-03T09:11:20.985Z,25
2017-06-03T09:21:36.892Z,24.8
2017-06-03T09:31:51.405Z,26.2
2017-06-03T09:42:06.116Z,26.5
2017-06-03T09:52:20.257Z,25.6
2017-06-03T10:02:35.664Z,27.6
2017-06-03T10:12:51.640Z,26.4
2017-06-03T10:23:06.753Z,26.2
2017-06-03T10:33:22.458Z,26.4
2017-06-03T10:43:37.354Z,27.2
2017-06-03T10:53:52.051Z,27
2017-06-03T11:04:07.323Z,28
2017-06-03T11:14:22.909Z,26.9
2017-06-03T11:24:38.452Z,28.3
2017-06-03T11:34:53.563Z,27.5
2017-06-03T11:45:07.725Z,28
2017-06-03T11:55:22.782Z,28.3
2017-06-03T12:05:38.009Z,27.7
2017-06-03T12:15:53.498Z,28.4
2017-06-03T12:26:09.307Z,28.3
2017-06-03T12:36:23.569Z,29.3
2017-06-03T12:46:39.108Z,26.8
2017-06-03T12:56:53.449Z,26.8
2017-06-03T13:07:08.483Z,26.4
2017-06-03T13:17:23.939Z,26.5
2017-06-03T13:27:38.571Z,26.7
2017-06-03T13:37:53.716Z,27.3
2017-06-03T13:48:08.814Z,28.2
2017-06-03T13:58:24.519Z,26.9
2017-06-03T14:08:39.847Z,26.3
2017-06-03T14:18:54.255Z,26.1
2017-06-03T14:29:09.204Z,26
2017-06-03T14:39:24.118Z,25.8
2017-06-03T14:49:39.853Z,24.1
2017-06-03T14:59:55.267Z,23.5
2017-06-03T15:10:10.671Z,24.6
2017-06-03T15:20:26.548Z,25.1
2017-06-03T15:30:41.694Z,26.4
2017-06-03T15:40:56.912Z,26.9
2017-06-03T15:51:12.460Z,27
2017-06-03T16:01:27.624Z,26.2
2017-06-03T16:11:41.575Z,25.5
2017-06-03T16:21:55.798Z,24.3
2017-06-03T16:32:09.906Z,24.3
2017-06-03T16:42:25.665Z,24.3
2017-06-03T16:52:41.169Z,23.7
2017-06-03T17:02:55.078Z,23.7
2017-06-03T17:13:10.900Z,23.5
2017-06-03T17:23:25.806Z,23.1
2017-06-03T17:33:40.137Z,22.6
2017-06-03T17:43:55.564Z,22.6
2017-06-03T17:54:10.587Z,22.4
2017-06-03T18:04:26.055Z,22.2
2017-06-03T18:14:40.128Z,21.9
2017-06-03T18:24:55.068Z,21.5
2017-06-03T18:35:10.344Z,21.5
2017-06-03T18:45:25.225Z,21.2
2017-06-03T18:55:40.636Z,21
2017-06-03T19:05:55.482Z,20.8
2017-06-03T19:16:10.979Z,20.7
2017-06-03T19:26:24.871Z,20.6
2017-06-03T19:36:39.915Z,20.3
2017-06-03T19:46:54.014Z,20.6
2017-06-03T19:57:09.419Z,20.3
2017-06-03T20:07:23.259Z,19.6
2017-06-03T20:17:38.052Z,19.4
2017-06-03T20:27:52.089Z,19.1
2017-06-03T20:38:06.155Z,18.9
2017-06-03T20:48:20.950Z,18.7
2017-06-03T20:58:36.082Z,18.7
2017-06-03T21:08:51.604Z,18.5
2017-06-03T21:19:05.924Z,18.6
2017-06-03T21:29:19.957Z,18.4
2017-06-03T21:39:33.999Z,18.4
2017-06-03T21:49:49.184Z,18.3
2017-06-03T22:00:03.204Z,18.3
2017-06-03T22:10:18.979Z,18.3
2017-06-03T22:20:33.190Z,18.2
2017-06-03T22:30:48.035Z,17.9
2017-06-03T22:41:02.769Z,17.8
2017-06-03T22:51:16.674Z,17.6
2017-06-03T23:01:31.459Z,17.5
2017-06-03T23:11:46.499Z,17.4
2017-06-03T23:22:00.325Z,17.2
2017-06-03T23:32:14.785Z,17.1
2017-06-03T23:42:29.269Z,17
2017-06-03T23:52:44.185Z,16.9
